sensor_id;sensor_type;location;lat;lon;timestamp;temperature;humidity
73688;SHT30;62257;48.376;-4.378;2022-08-19T09:30:21;19.91;85.71
73688;SHT30;62257;48.376;-4.378;2022-08-19T09:32:48;19.98;85.18
73688;SHT30;62257;48.376;-4.378;2022-08-19T09:35:14;20.05;84.61
73688;SHT30;62257;48.376;-4.378;2022-08-19T09:37:41;20.09;84.36
73688;SHT30;62257;48.376;-4.378;2022-08-19T09:40:08;20.01;84.11
73688;SHT30;62257;48.376;-4.378;2022-08-19T09:42:33;19.85;84.28
73688;SHT30;62257;48.376;-4.378;2022-08-19T09:44:59;19.64;85.50
73688;SHT30;62257;48.376;-4.378;2022-08-19T09:47:25;19.61;85.16
73688;SHT30;62257;48.376;-4.378;2022-08-19T09:49:50;19.70;84.49
73688;SHT30;62257;48.376;-4.378;2022-08-19T09:52:16;19.79;85.29
73688;SHT30;62257;48.376;-4.378;2022-08-19T09:54:41;19.78;84.35
73688;SHT30;62257;48.376;-4.378;2022-08-19T09:57:07;19.71;84.77
73688;SHT30;62257;48.376;-4.378;2022-08-19T09:59:33;19.61;84.95
73688;SHT30;62257;48.376;-4.378;2022-08-19T10:01:58;19.85;85.14
73688;SHT30;62257;48.376;-4.378;2022-08-19T10:04:24;20.05;84.25
73688;SHT30;62257;48.376;-4.378;2022-08-19T10:07:10;20.42;83.40
73688;SHT30;62257;48.376;-4.378;2022-08-19T10:09:36;20.88;83.23
73688;SHT30;62257;48.376;-4.378;2022-08-19T10:12:03;21.24;78.52
73688;SHT30;62257;48.376;-4.378;2022-08-19T10:14:30;21.53;80.61
73688;SHT30;62257;48.376;-4.378;2022-08-19T10:16:55;21.50;78.18
73688;SHT30;62257;48.376;-4.378;2022-08-19T10:19:21;21.36;79.73
73688;SHT30;62257;48.376;-4.378;2022-08-19T10:21:47;21.41;80.69
73688;SHT30;62257;48.376;-4.378;2022-08-19T10:24:12;21.56;79.88
73688;SHT30;62257;48.376;-4.378;2022-08-19T10:26:39;21.66;77.45
73688;SHT30;62257;48.376;-4.378;2022-08-19T10:29:07;21.79;76.94
73688;SHT30;62257;48.376;-4.378;2022-08-19T10:31:33;21.79;76.42
73688;SHT30;62257;48.376;-4.378;2022-08-19T10:33:59;21.89;76.71
73688;SHT30;62257;48.376;-4.378;2022-08-19T10:36:30;21.94;75.43
73688;SHT30;62257;48.376;-4.378;2022-08-19T10:38:59;22.07;75.86
73688;SHT30;62257;48.376;-4.378;2022-08-19T10:41:32;22.12;75.37
73688;SHT30;62257;48.376;-4.378;2022-08-19T10:44:00;22.24;76.73
73688;SHT30;62257;48.376;-4.378;2022-08-19T10:46:27;22.15;74.06
73688;SHT30;62257;48.376;-4.378;2022-08-19T10:48:54;22.17;73.33
73688;SHT30;62257;48.376;-4.378;2022-08-19T10:51:20;22.25;75.44
73688;SHT30;62257;48.376;-4.378;2022-08-19T10:54:05;22.27;75.08
73688;SHT30;62257;48.376;-4.378;2022-08-19T10:56:31;22.19;71.52
73688;SHT30;62257;48.376;-4.378;2022-08-19T10:59:18;22.05;72.59
73688;SHT30;62257;48.376;-4.378;2022-08-19T11:01:45;21.91;73.68
73688;SHT30;62257;48.376;-4.378;2022-08-19T11:04:12;22.02;72.37
73688;SHT30;62257;48.376;-4.378;2022-08-19T11:06:40;22.28;72.57
73688;SHT30;62257;48.376;-4.378;2022-08-19T11:09:06;22.22;70.04
73688;SHT30;62257;48.376;-4.378;2022-08-19T11:11:31;22.29;70.19
73688;SHT30;62257;48.376;-4.378;2022-08-19T11:14:06;22.42;69.18
73688;SHT30;62257;48.376;-4.378;2022-08-19T11:16:32;22.25;68.05
73688;SHT30;62257;48.376;-4.378;2022-08-19T11:18:58;22.11;69.21
73688;SHT30;62257;48.376;-4.378;2022-08-19T11:21:30;22.17;70.62
73688;SHT30;62257;48.376;-4.378;2022-08-19T11:24:01;22.15;69.73
73688;SHT30;62257;48.376;-4.378;2022-08-19T11:26:28;22.05;67.94
73688;SHT30;62257;48.376;-4.378;2022-08-19T11:28:55;22.08;69.18
73688;SHT30;62257;48.376;-4.378;2022-08-19T11:31:26;21.84;65.39
73688;SHT30;62257;48.376;-4.378;2022-08-19T11:33:52;21.97;67.50
73688;SHT30;62257;48.376;-4.378;2022-08-19T11:36:21;22.08;67.47
73688;SHT30;62257;48.376;-4.378;2022-08-19T11:38:49;22.02;66.61
73688;SHT30;62257;48.376;-4.378;2022-08-19T11:41:17;22.04;66.54
73688;SHT30;62257;48.376;-4.378;2022-08-19T11:43:43;21.96;67.40
73688;SHT30;62257;48.376;-4.378;2022-08-19T11:46:13;21.74;66.57
73688;SHT30;62257;48.376;-4.378;2022-08-19T11:48:40;21.69;65.82
73688;SHT30;62257;48.376;-4.378;2022-08-19T11:51:08;21.57;68.28
73688;SHT30;62257;48.376;-4.378;2022-08-19T11:53:35;21.60;66.00
73688;SHT30;62257;48.376;-4.378;2022-08-19T11:56:01;21.77;67.21
73688;SHT30;62257;48.376;-4.378;2022-08-19T11:58:27;21.73;66.10
73688;SHT30;62257;48.376;-4.378;2022-08-19T12:00:54;21.93;61.90
73688;SHT30;62257;48.376;-4.378;2022-08-19T12:03:20;22.05;62.20
73688;SHT30;62257;48.376;-4.378;2022-08-19T12:05:45;22.05;63.49
73688;SHT30;62257;48.376;-4.378;2022-08-19T12:08:12;22.15;64.82
73688;SHT30;62257;48.376;-4.378;2022-08-19T12:10:39;22.38;64.14
73688;SHT30;62257;48.376;-4.378;2022-08-19T12:13:05;22.57;65.55
73688;SHT30;62257;48.376;-4.378;2022-08-19T12:15:38;22.65;63.57
73688;SHT30;62257;48.376;-4.378;2022-08-19T12:18:06;22.76;63.03
73688;SHT30;62257;48.376;-4.378;2022-08-19T12:20:37;22.72;63.01
73688;SHT30;62257;48.376;-4.378;2022-08-19T12:23:04;22.59;58.91
73688;SHT30;62257;48.376;-4.378;2022-08-19T12:25:29;22.27;59.53
73688;SHT30;62257;48.376;-4.378;2022-08-19T12:27:56;22.11;59.65
73688;SHT30;62257;48.376;-4.378;2022-08-19T12:30:21;22.05;60.84
73688;SHT30;62257;48.376;-4.378;2022-08-19T12:32:47;22.05;60.73
73688;SHT30;62257;48.376;-4.378;2022-08-19T12:35:13;21.97;60.86
73688;SHT30;62257;48.376;-4.378;2022-08-19T12:37:39;21.97;59.72
73688;SHT30;62257;48.376;-4.378;2022-08-19T12:40:10;21.94;63.38
73688;SHT30;62257;48.376;-4.378;2022-08-19T12:42:37;21.73;60.18
73688;SHT30;62257;48.376;-4.378;2022-08-19T12:45:06;21.67;57.64
73688;SHT30;62257;48.376;-4.378;2022-08-19T12:47:31;21.54;60.32
73688;SHT30;62257;48.376;-4.378;2022-08-19T12:49:57;21.57;60.55
73688;SHT30;62257;48.376;-4.378;2022-08-19T12:52:24;21.66;61.98
73688;SHT30;62257;48.376;-4.378;2022-08-19T12:54:51;21.70;61.51
73688;SHT30;62257;48.376;-4.378;2022-08-19T12:57:16;21.79;61.38
73688;SHT30;62257;48.376;-4.378;2022-08-19T12:59:42;21.86;60.70
73688;SHT30;62257;48.376;-4.378;2022-08-19T13:02:08;21.86;61.67
73688;SHT30;62257;48.376;-4.378;2022-08-19T13:04:34;21.76;61.06
73688;SHT30;62257;48.376;-4.378;2022-08-19T13:07:06;21.77;61.04
73688;SHT30;62257;48.376;-4.378;2022-08-19T13:09:33;21.59;57.73
73688;SHT30;62257;48.376;-4.378;2022-08-19T13:11:58;21.64;61.69
73688;SHT30;62257;48.376;-4.378;2022-08-19T13:14:26;21.76;61.26
73688;SHT30;62257;48.376;-4.378;2022-08-19T13:16:51;21.86;58.35
73688;SHT30;62257;48.376;-4.378;2022-08-19T13:19:16;21.91;59.39
73688;SHT30;62257;48.376;-4.378;2022-08-19T13:21:49;22.01;59.30
73688;SHT30;62257;48.376;-4.378;2022-08-19T13:24:14;21.90;58.19
73688;SHT30;62257;48.376;-4.378;2022-08-19T13:26:40;21.94;59.08
73688;SHT30;62257;48.376;-4.378;2022-08-19T13:29:06;22.01;58.78
73688;SHT30;62257;48.376;-4.378;2022-08-19T13:31:50;22.05;57.92
73688;SHT30;62257;48.376;-4.378;2022-08-19T13:34:34;22.08;59.76
73688;SHT30;62257;48.376;-4.378;2022-08-19T13:37:02;22.08;57.53
73688;SHT30;62257;48.376;-4.378;2022-08-19T13:39:31;22.02;59.80
73688;SHT30;62257;48.376;-4.378;2022-08-19T13:41:58;22.08;59.73
73688;SHT30;62257;48.376;-4.378;2022-08-19T13:44:26;22.14;58.40
73688;SHT30;62257;48.376;-4.378;2022-08-19T13:46:51;22.12;57.67
73688;SHT30;62257;48.376;-4.378;2022-08-19T13:49:18;22.22;59.08
73688;SHT30;62257;48.376;-4.378;2022-08-19T13:51:44;22.21;60.92
73688;SHT30;62257;48.376;-4.378;2022-08-19T13:54:10;22.19;59.69
73688;SHT30;62257;48.376;-4.378;2022-08-19T13:56:43;22.22;60.29
73688;SHT30;62257;48.376;-4.378;2022-08-19T13:59:10;22.21;60.81
73688;SHT30;62257;48.376;-4.378;2022-08-19T14:01:37;22.19;61.78
73688;SHT30;62257;48.376;-4.378;2022-08-19T14:04:03;22.15;60.88
73688;SHT30;62257;48.376;-4.378;2022-08-19T14:06:31;22.11;59.57
73688;SHT30;62257;48.376;-4.378;2022-08-19T14:08:56;22.08;62.44
73688;SHT30;62257;48.376;-4.378;2022-08-19T14:11:21;21.97;61.14
73688;SHT30;62257;48.376;-4.378;2022-08-19T14:13:48;21.97;61.22
73688;SHT30;62257;48.376;-4.378;2022-08-19T14:16:14;21.89;60.34
73688;SHT30;62257;48.376;-4.378;2022-08-19T14:18:40;21.89;61.92
73688;SHT30;62257;48.376;-4.378;2022-08-19T14:21:07;21.89;61.66
73688;SHT30;62257;48.376;-4.378;2022-08-19T14:23:32;21.81;61.92
73688;SHT30;62257;48.376;-4.378;2022-08-19T14:26:11;21.81;63.77
73688;SHT30;62257;48.376;-4.378;2022-08-19T14:28:37;21.79;61.96
73688;SHT30;62257;48.376;-4.378;2022-08-19T14:31:04;21.74;63.61
73688;SHT30;62257;48.376;-4.378;2022-08-19T14:33:30;21.76;63.73
73688;SHT30;62257;48.376;-4.378;2022-08-19T14:35:55;21.77;62.19
73688;SHT30;62257;48.376;-4.378;2022-08-19T14:38:20;21.84;61.61
73688;SHT30;62257;48.376;-4.378;2022-08-19T14:40:46;21.81;62.30
73688;SHT30;62257;48.376;-4.378;2022-08-19T14:43:12;21.80;60.46
73688;SHT30;62257;48.376;-4.378;2022-08-19T14:45:38;21.77;62.50
73688;SHT30;62257;48.376;-4.378;2022-08-19T14:48:05;21.80;59.79
73688;SHT30;62257;48.376;-4.378;2022-08-19T14:50:31;21.79;58.02
73688;SHT30;62257;48.376;-4.378;2022-08-19T14:53:02;21.80;58.64
73688;SHT30;62257;48.376;-4.378;2022-08-19T14:55:29;21.79;58.26
73688;SHT30;62257;48.376;-4.378;2022-08-19T14:57:54;21.83;57.66
73688;SHT30;62257;48.376;-4.378;2022-08-19T15:00:20;21.81;57.20
73688;SHT30;62257;48.376;-4.378;2022-08-19T15:02:46;21.80;54.49
73688;SHT30;62257;48.376;-4.378;2022-08-19T15:05:12;21.73;57.36
73688;SHT30;62257;48.376;-4.378;2022-08-19T15:07:38;21.72;57.23
73688;SHT30;62257;48.376;-4.378;2022-08-19T15:10:06;21.74;56.47
73688;SHT30;62257;48.376;-4.378;2022-08-19T15:12:33;21.76;56.93
73688;SHT30;62257;48.376;-4.378;2022-08-19T15:14:59;21.84;57.25
73688;SHT30;62257;48.376;-4.378;2022-08-19T15:17:24;21.80;54.26
73688;SHT30;62257;48.376;-4.378;2022-08-19T15:19:50;21.79;55.85
73688;SHT30;62257;48.376;-4.378;2022-08-19T15:22:16;21.83;55.16
73688;SHT30;62257;48.376;-4.378;2022-08-19T15:24:41;21.90;56.11
73688;SHT30;62257;48.376;-4.378;2022-08-19T15:27:10;21.84;55.99
73688;SHT30;62257;48.376;-4.378;2022-08-19T15:29:36;21.83;55.51
73688;SHT30;62257;48.376;-4.378;2022-08-19T15:32:02;21.83;56.40
73688;SHT30;62257;48.376;-4.378;2022-08-19T15:34:28;21.81;56.20
73688;SHT30;62257;48.376;-4.378;2022-08-19T15:36:55;21.76;55.97
73688;SHT30;62257;48.376;-4.378;2022-08-19T15:39:23;21.70;56.28
73688;SHT30;62257;48.376;-4.378;2022-08-19T15:41:48;21.73;56.03
73688;SHT30;62257;48.376;-4.378;2022-08-19T15:44:16;21.63;57.03
73688;SHT30;62257;48.376;-4.378;2022-08-19T15:46:44;21.67;56.36
73688;SHT30;62257;48.376;-4.378;2022-08-19T15:49:11;21.63;56.92
73688;SHT30;62257;48.376;-4.378;2022-08-19T15:51:38;21.67;57.27
73688;SHT30;62257;48.376;-4.378;2022-08-19T15:54:07;21.74;57.20
73688;SHT30;62257;48.376;-4.378;2022-08-19T15:56:34;21.72;57.54
73688;SHT30;62257;48.376;-4.378;2022-08-19T15:59:17;21.70;56.44
73688;SHT30;62257;48.376;-4.378;2022-08-19T16:02:02;21.74;57.13
73688;SHT30;62257;48.376;-4.378;2022-08-19T16:04:46;21.76;56.55
73688;SHT30;62257;48.376;-4.378;2022-08-19T16:07:30;21.73;56.59
73688;SHT30;62257;48.376;-4.378;2022-08-19T16:09:56;21.74;54.97
73688;SHT30;62257;48.376;-4.378;2022-08-19T16:12:21;21.73;54.86
73688;SHT30;62257;48.376;-4.378;2022-08-19T16:14:51;21.72;55.31
73688;SHT30;62257;48.376;-4.378;2022-08-19T16:17:17;21.63;55.48
73688;SHT30;62257;48.376;-4.378;2022-08-19T16:19:43;21.63;55.86
73688;SHT30;62257;48.376;-4.378;2022-08-19T16:22:08;21.69;55.33
73688;SHT30;62257;48.376;-4.378;2022-08-19T16:24:34;21.64;55.91
73688;SHT30;62257;48.376;-4.378;2022-08-19T16:26:59;21.67;56.15
73688;SHT30;62257;48.376;-4.378;2022-08-19T16:29:26;21.67;56.43
73688;SHT30;62257;48.376;-4.378;2022-08-19T16:31:53;21.63;56.44
73688;SHT30;62257;48.376;-4.378;2022-08-19T16:34:19;21.72;56.86
73688;SHT30;62257;48.376;-4.378;2022-08-19T16:36:45;21.74;56.34
73688;SHT30;62257;48.376;-4.378;2022-08-19T16:39:12;21.66;54.78
73688;SHT30;62257;48.376;-4.378;2022-08-19T16:41:39;21.69;56.10
73688;SHT30;62257;48.376;-4.378;2022-08-19T16:44:06;21.67;56.10
73688;SHT30;62257;48.376;-4.378;2022-08-19T16:46:32;21.67;55.79
73688;SHT30;62257;48.376;-4.378;2022-08-19T16:48:58;21.69;56.12
73688;SHT30;62257;48.376;-4.378;2022-08-19T16:51:23;21.76;56.46
73688;SHT30;62257;48.376;-4.378;2022-08-19T16:53:49;21.72;56.47
73688;SHT30;62257;48.376;-4.378;2022-08-19T16:56:17;21.69;55.87
73688;SHT30;62257;48.376;-4.378;2022-08-19T16:58:43;21.64;56.64
73688;SHT30;62257;48.376;-4.378;2022-08-19T17:01:09;21.63;56.72
73688;SHT30;62257;48.376;-4.378;2022-08-19T17:03:37;21.57;55.77
73688;SHT30;62257;48.376;-4.378;2022-08-19T17:06:10;21.49;55.48
73688;SHT30;62257;48.376;-4.378;2022-08-19T17:08:36;21.52;55.96
73688;SHT30;62257;48.376;-4.378;2022-08-19T17:11:01;21.50;56.76
73688;SHT30;62257;48.376;-4.378;2022-08-19T17:13:28;21.54;56.53
73688;SHT30;62257;48.376;-4.378;2022-08-19T17:15:54;21.53;56.56
73688;SHT30;62257;48.376;-4.378;2022-08-19T17:18:20;21.50;56.32
73688;SHT30;62257;48.376;-4.378;2022-08-19T17:20:47;21.50;56.83
73688;SHT30;62257;48.376;-4.378;2022-08-19T17:23:13;21.47;56.74
73688;SHT30;62257;48.376;-4.378;2022-08-19T17:25:38;21.52;56.53
73688;SHT30;62257;48.376;-4.378;2022-08-19T17:28:17;21.49;55.99
73688;SHT30;62257;48.376;-4.378;2022-08-19T17:30:42;21.45;56.13
73688;SHT30;62257;48.376;-4.378;2022-08-19T17:33:08;21.35;56.68
73688;SHT30;62257;48.376;-4.378;2022-08-19T17:35:34;21.35;57.17
73688;SHT30;62257;48.376;-4.378;2022-08-19T17:38:05;21.36;57.76
73688;SHT30;62257;48.376;-4.378;2022-08-19T17:40:32;21.43;57.77
73688;SHT30;62257;48.376;-4.378;2022-08-19T17:42:57;21.34;57.90
73688;SHT30;62257;48.376;-4.378;2022-08-19T17:45:23;21.26;57.65
73688;SHT30;62257;48.376;-4.378;2022-08-19T17:47:49;21.26;57.49
73688;SHT30;62257;48.376;-4.378;2022-08-19T17:50:15;21.24;57.89
73688;SHT30;62257;48.376;-4.378;2022-08-19T17:52:41;21.22;58.17
73688;SHT30;62257;48.376;-4.378;2022-08-19T17:55:08;21.08;57.77
73688;SHT30;62257;48.376;-4.378;2022-08-19T17:57:35;21.14;58.61
73688;SHT30;62257;48.376;-4.378;2022-08-19T18:00:00;21.14;57.99
73688;SHT30;62257;48.376;-4.378;2022-08-19T18:02:26;21.14;57.80
73688;SHT30;62257;48.376;-4.378;2022-08-19T18:04:51;21.12;58.50
73688;SHT30;62257;48.376;-4.378;2022-08-19T18:07:17;21.04;57.99
73688;SHT30;62257;48.376;-4.378;2022-08-19T18:09:46;21.04;58.46
73688;SHT30;62257;48.376;-4.378;2022-08-19T18:12:21;20.98;58.38
73688;SHT30;62257;48.376;-4.378;2022-08-19T18:14:47;20.94;57.70
73688;SHT30;62257;48.376;-4.378;2022-08-19T18:17:14;20.98;58.04
73688;SHT30;62257;48.376;-4.378;2022-08-19T18:19:42;20.94;58.24
73688;SHT30;62257;48.376;-4.378;2022-08-19T18:22:08;20.91;58.44
73688;SHT30;62257;48.376;-4.378;2022-08-19T18:24:37;20.90;58.48
73688;SHT30;62257;48.376;-4.378;2022-08-19T18:27:02;20.87;58.66
73688;SHT30;62257;48.376;-4.378;2022-08-19T18:29:28;20.81;58.33
73688;SHT30;62257;48.376;-4.378;2022-08-19T18:31:57;20.74;58.86
73688;SHT30;62257;48.376;-4.378;2022-08-19T18:34:23;20.66;58.07
73688;SHT30;62257;48.376;-4.378;2022-08-19T18:36:48;20.50;59.11
73688;SHT30;62257;48.376;-4.378;2022-08-19T18:39:13;20.50;58.85
73688;SHT30;62257;48.376;-4.378;2022-08-19T18:41:57;20.42;60.05
73688;SHT30;62257;48.376;-4.378;2022-08-19T18:44:41;20.26;59.85
73688;SHT30;62257;48.376;-4.378;2022-08-19T18:47:25;20.16;60.25
73688;SHT30;62257;48.376;-4.378;2022-08-19T18:50:10;20.06;60.95
73688;SHT30;62257;48.376;-4.378;2022-08-19T18:52:37;19.95;60.83
73688;SHT30;62257;48.376;-4.378;2022-08-19T18:55:04;19.89;60.28
73688;SHT30;62257;48.376;-4.378;2022-08-19T18:57:31;19.84;60.68
73688;SHT30;62257;48.376;-4.378;2022-08-19T18:59:57;19.78;61.26
73688;SHT30;62257;48.376;-4.378;2022-08-19T19:02:22;19.70;61.06
73688;SHT30;62257;48.376;-4.378;2022-08-19T19:04:48;19.60;61.49
73688;SHT30;62257;48.376;-4.378;2022-08-19T19:07:14;19.49;62.18
73688;SHT30;62257;48.376;-4.378;2022-08-19T19:09:40;19.39;62.56
73688;SHT30;62257;48.376;-4.378;2022-08-19T19:12:09;19.23;62.24
73688;SHT30;62257;48.376;-4.378;2022-08-19T19:14:40;19.16;62.64
73688;SHT30;62257;48.376;-4.378;2022-08-19T19:17:09;19.08;63.20
73688;SHT30;62257;48.376;-4.378;2022-08-19T19:19:38;18.99;63.21
73688;SHT30;62257;48.376;-4.378;2022-08-19T19:22:08;18.95;64.04
73688;SHT30;62257;48.376;-4.378;2022-08-19T19:24:35;18.79;64.11
73688;SHT30;62257;48.376;-4.378;2022-08-19T19:27:03;18.72;64.84
73688;SHT30;62257;48.376;-4.378;2022-08-19T19:29:31;18.67;64.93
73688;SHT30;62257;48.376;-4.378;2022-08-19T19:31:56;18.57;64.76
73688;SHT30;62257;48.376;-4.378;2022-08-19T19:34:22;18.54;64.99
73688;SHT30;62257;48.376;-4.378;2022-08-19T19:36:49;18.41;65.99
73688;SHT30;62257;48.376;-4.378;2022-08-19T19:39:16;18.40;66.29
73688;SHT30;62257;48.376;-4.378;2022-08-19T19:41:42;18.32;66.10
73688;SHT30;62257;48.376;-4.378;2022-08-19T19:44:07;18.26;66.74
73688;SHT30;62257;48.376;-4.378;2022-08-19T19:46:34;18.22;66.83
73688;SHT30;62257;48.376;-4.378;2022-08-19T19:49:00;18.17;67.15
73688;SHT30;62257;48.376;-4.378;2022-08-19T19:51:27;18.10;67.60
73688;SHT30;62257;48.376;-4.378;2022-08-19T19:53:53;18.05;67.68
73688;SHT30;62257;48.376;-4.378;2022-08-19T19:56:20;18.00;67.82
73688;SHT30;62257;48.376;-4.378;2022-08-19T19:58:46;17.98;67.70
73688;SHT30;62257;48.376;-4.378;2022-08-19T20:01:13;17.93;68.53
73688;SHT30;62257;48.376;-4.378;2022-08-19T20:03:39;17.90;68.77
73688;SHT30;62257;48.376;-4.378;2022-08-19T20:06:06;17.85;69.09
73688;SHT30;62257;48.376;-4.378;2022-08-19T20:08:31;17.81;69.37
73688;SHT30;62257;48.376;-4.378;2022-08-19T20:11:32;17.78;69.84
73688;SHT30;62257;48.376;-4.378;2022-08-19T20:14:01;17.75;70.01
73688;SHT30;62257;48.376;-4.378;2022-08-19T20:16:28;17.72;69.77
73688;SHT30;62257;48.376;-4.378;2022-08-19T20:18:55;17.67;70.68
73688;SHT30;62257;48.376;-4.378;2022-08-19T20:21:22;17.65;70.58
73688;SHT30;62257;48.376;-4.378;2022-08-19T20:23:48;17.61;70.82
73688;SHT30;62257;48.376;-4.378;2022-08-19T20:26:14;17.57;71.09
73688;SHT30;62257;48.376;-4.378;2022-08-19T20:28:42;17.58;71.49
73688;SHT30;62257;48.376;-4.378;2022-08-19T20:31:08;17.51;71.76
73688;SHT30;62257;48.376;-4.378;2022-08-19T20:33:33;17.50;71.89
73688;SHT30;62257;48.376;-4.378;2022-08-19T20:35:58;17.47;71.90
73688;SHT30;62257;48.376;-4.378;2022-08-19T20:38:24;17.42;72.12
73688;SHT30;62257;48.376;-4.378;2022-08-19T20:40:49;17.41;71.78
73688;SHT30;62257;48.376;-4.378;2022-08-19T20:43:15;17.38;72.22
73688;SHT30;62257;48.376;-4.378;2022-08-19T20:45:41;17.38;72.22
73688;SHT30;62257;48.376;-4.378;2022-08-19T20:48:07;17.34;72.07
73688;SHT30;62257;48.376;-4.378;2022-08-19T20:50:35;17.34;72.37
73688;SHT30;62257;48.376;-4.378;2022-08-19T20:53:08;17.31;72.55
73688;SHT30;62257;48.376;-4.378;2022-08-19T20:55:33;17.30;72.49
73688;SHT30;62257;48.376;-4.378;2022-08-19T20:57:59;17.28;72.73
73688;SHT30;62257;48.376;-4.378;2022-08-19T21:00:24;17.23;72.70
73688;SHT30;62257;48.376;-4.378;2022-08-19T21:02:50;17.24;72.99
73688;SHT30;62257;48.376;-4.378;2022-08-19T21:05:15;17.24;72.76
73688;SHT30;62257;48.376;-4.378;2022-08-19T21:07:41;17.23;73.34
73688;SHT30;62257;48.376;-4.378;2022-08-19T21:10:06;17.22;73.20
73688;SHT30;62257;48.376;-4.378;2022-08-19T21:12:32;17.23;73.17
73688;SHT30;62257;48.376;-4.378;2022-08-19T21:14:57;17.24;73.24
73688;SHT30;62257;48.376;-4.378;2022-08-19T21:17:23;17.20;73.44
73688;SHT30;62257;48.376;-4.378;2022-08-19T21:19:48;17.19;73.08
73688;SHT30;62257;48.376;-4.378;2022-08-19T21:22:13;17.20;73.23
73688;SHT30;62257;48.376;-4.378;2022-08-19T21:24:39;17.20;73.57
73688;SHT30;62257;48.376;-4.378;2022-08-19T21:27:06;17.20;73.42
73688;SHT30;62257;48.376;-4.378;2022-08-19T21:29:31;17.19;73.78
73688;SHT30;62257;48.376;-4.378;2022-08-19T21:32:01;17.17;73.72
73688;SHT30;62257;48.376;-4.378;2022-08-19T21:34:26;17.17;74.20
73688;SHT30;62257;48.376;-4.378;2022-08-19T21:36:51;17.16;74.07
73688;SHT30;62257;48.376;-4.378;2022-08-19T21:39:17;17.16;74.25
73688;SHT30;62257;48.376;-4.378;2022-08-19T21:41:42;17.16;74.47
73688;SHT30;62257;48.376;-4.378;2022-08-19T21:44:08;17.17;74.72
73688;SHT30;62257;48.376;-4.378;2022-08-19T21:46:33;17.14;74.73
73688;SHT30;62257;48.376;-4.378;2022-08-19T21:48:59;17.14;74.79
73688;SHT30;62257;48.376;-4.378;2022-08-19T21:51:24;17.13;74.88
73688;SHT30;62257;48.376;-4.378;2022-08-19T21:53:49;17.12;74.92
73688;SHT30;62257;48.376;-4.378;2022-08-19T21:56:15;17.10;75.11
73688;SHT30;62257;48.376;-4.378;2022-08-19T21:58:40;17.10;74.87
73688;SHT30;62257;48.376;-4.378;2022-08-19T22:01:06;17.07;75.40
73688;SHT30;62257;48.376;-4.378;2022-08-19T22:03:36;17.06;75.31
73688;SHT30;62257;48.376;-4.378;2022-08-19T22:06:02;17.04;75.22
73688;SHT30;62257;48.376;-4.378;2022-08-19T22:08:27;17.03;75.61
73688;SHT30;62257;48.376;-4.378;2022-08-19T22:10:54;17.03;75.94
73688;SHT30;62257;48.376;-4.378;2022-08-19T22:13:19;17.03;76.35
73688;SHT30;62257;48.376;-4.378;2022-08-19T22:15:45;17.02;76.97
73688;SHT30;62257;48.376;-4.378;2022-08-19T22:18:12;17.03;77.18
73688;SHT30;62257;48.376;-4.378;2022-08-19T22:20:41;17.04;76.74
73688;SHT30;62257;48.376;-4.378;2022-08-19T22:23:07;17.03;77.03
73688;SHT30;62257;48.376;-4.378;2022-08-19T22:25:36;17.00;76.94
73688;SHT30;62257;48.376;-4.378;2022-08-19T22:28:04;16.99;77.04
73688;SHT30;62257;48.376;-4.378;2022-08-19T22:30:31;16.97;76.55
73688;SHT30;62257;48.376;-4.378;2022-08-19T22:32:58;16.96;76.80
73688;SHT30;62257;48.376;-4.378;2022-08-19T22:35:29;16.95;77.13
73688;SHT30;62257;48.376;-4.378;2022-08-19T22:37:57;16.93;76.60
73688;SHT30;62257;48.376;-4.378;2022-08-19T22:40:24;16.89;76.66
73688;SHT30;62257;48.376;-4.378;2022-08-19T22:43:01;16.89;76.76
73688;SHT30;62257;48.376;-4.378;2022-08-19T22:45:28;16.86;76.63
73688;SHT30;62257;48.376;-4.378;2022-08-19T22:47:54;16.83;76.28
73688;SHT30;62257;48.376;-4.378;2022-08-19T22:50:20;16.83;76.32
73688;SHT30;62257;48.376;-4.378;2022-08-19T22:52:45;16.80;76.13
73688;SHT30;62257;48.376;-4.378;2022-08-19T22:55:11;16.77;76.50
73688;SHT30;62257;48.376;-4.378;2022-08-19T22:57:36;16.76;76.10
73688;SHT30;62257;48.376;-4.378;2022-08-19T23:00:05;16.75;76.09
73688;SHT30;62257;48.376;-4.378;2022-08-19T23:02:35;16.76;76.44
73688;SHT30;62257;48.376;-4.378;2022-08-19T23:05:04;16.73;76.41
73688;SHT30;62257;48.376;-4.378;2022-08-19T23:07:31;16.68;76.21
73688;SHT30;62257;48.376;-4.378;2022-08-19T23:09:56;16.72;76.45
73688;SHT30;62257;48.376;-4.378;2022-08-19T23:12:34;16.72;76.94
73688;SHT30;62257;48.376;-4.378;2022-08-19T23:15:11;16.75;76.79
73688;SHT30;62257;48.376;-4.378;2022-08-19T23:17:37;16.79;76.87
73688;SHT30;62257;48.376;-4.378;2022-08-19T23:20:05;16.83;77.27
73688;SHT30;62257;48.376;-4.378;2022-08-19T23:22:32;16.87;77.36
73688;SHT30;62257;48.376;-4.378;2022-08-19T23:25:07;16.86;77.46
73688;SHT30;62257;48.376;-4.378;2022-08-19T23:27:33;16.83;77.31
73688;SHT30;62257;48.376;-4.378;2022-08-19T23:30:17;16.75;77.53
73688;SHT30;62257;48.376;-4.378;2022-08-19T23:32:57;16.72;77.81
73688;SHT30;62257;48.376;-4.378;2022-08-19T23:35:24;16.69;77.51
73688;SHT30;62257;48.376;-4.378;2022-08-19T23:37:50;16.69;77.35
73688;SHT30;62257;48.376;-4.378;2022-08-19T23:40:19;16.66;77.82
73688;SHT30;62257;48.376;-4.378;2022-08-19T23:42:48;16.59;78.63
73688;SHT30;62257;48.376;-4.378;2022-08-19T23:45:13;16.58;78.20
73688;SHT30;62257;48.376;-4.378;2022-08-19T23:47:39;16.55;78.76
73688;SHT30;62257;48.376;-4.378;2022-08-19T23:50:05;16.52;78.64
73688;SHT30;62257;48.376;-4.378;2022-08-19T23:52:33;16.51;78.96
73688;SHT30;62257;48.376;-4.378;2022-08-19T23:55:00;16.49;78.45
73688;SHT30;62257;48.376;-4.378;2022-08-19T23:57:26;16.48;78.37
73688;SHT30;62257;48.376;-4.378;2022-08-19T23:59:52;16.47;78.26
